createdAt,value
2023-04-24T00:05:40.482Z,0.47
2023-04-24T00:08:10.346Z,0.60
2023-04-24T00:10:40.244Z,0.38
2023-04-24T00:13:07.019Z,0.52
2023-04-24T00:15:33.675Z,0.60
2023-04-24T00:18:01.681Z,0.57
2023-04-24T00:20:29.735Z,0.70
2023-04-24T00:22:59.439Z,0.47
2023-04-24T00:25:26.178Z,0.52
2023-04-24T00:27:57.286Z,0.47
2023-04-24T00:30:24.065Z,0.50
2023-04-24T00:32:54.424Z,0.80
2023-04-24T00:35:24.538Z,0.50
2023-04-24T00:37:51.298Z,0.40
2023-04-24T00:40:17.993Z,0.60
2023-04-24T00:42:49.046Z,0.50
2023-04-24T00:45:16.105Z,0.63
2023-04-24T00:47:42.987Z,0.70
2023-04-24T00:50:11.562Z,0.50
2023-04-24T00:52:42.422Z,0.57
2023-04-24T00:55:09.470Z,0.60
2023-04-24T00:57:39.832Z,0.68
2023-04-24T01:00:12.079Z,0.60
2023-04-24T01:02:40.810Z,0.60
2023-04-24T01:05:08.567Z,0.50
2023-04-24T01:07:40.330Z,0.60
2023-04-24T01:10:09.541Z,1.20
2023-04-24T01:12:36.956Z,0.60
2023-04-24T01:15:04.383Z,0.50
2023-04-24T01:17:31.543Z,0.60
2023-04-24T01:19:59.168Z,0.65
2023-04-24T01:22:30.348Z,0.60
2023-04-24T01:25:27.363Z,0.82
2023-04-24T01:27:54.500Z,0.68
2023-04-24T01:30:21.175Z,0.70
2023-04-24T01:32:49.460Z,0.60
2023-04-24T01:35:21.038Z,0.47
2023-04-24T01:40:50.448Z,0.70
2023-04-24T01:43:18.526Z,0.60
2023-04-24T01:45:47.276Z,0.60
2023-04-24T01:48:14.983Z,0.73
2023-04-24T01:50:41.774Z,0.73
2023-04-24T01:53:11.686Z,0.60
2023-04-24T01:55:38.545Z,0.52
2023-04-24T01:58:08.199Z,0.50
2023-04-24T02:00:41.346Z,0.68
2023-04-24T02:03:12.011Z,0.40
2023-04-24T02:05:38.805Z,0.60
2023-04-24T02:08:05.510Z,0.50
2023-04-24T02:10:32.385Z,0.73
2023-04-24T02:13:00.934Z,0.70
2023-04-24T02:15:27.519Z,1.02
2023-04-24T02:18:08.802Z,0.57
2023-04-24T02:20:40.527Z,0.60
2023-04-24T02:23:07.305Z,0.60
2023-04-24T02:25:34.040Z,0.57
2023-04-24T02:28:00.800Z,0.50
2023-04-24T02:30:27.499Z,0.60
2023-04-24T02:32:55.640Z,0.50
2023-04-24T02:35:22.531Z,0.63
2023-04-24T02:37:51.239Z,0.60
2023-04-24T02:40:17.968Z,0.60
2023-04-24T02:42:47.244Z,0.73
2023-04-24T02:45:13.904Z,0.60
2023-04-24T02:47:44.542Z,1.00
2023-04-24T02:50:13.371Z,0.50
2023-04-24T02:52:46.053Z,0.50
2023-04-24T02:55:16.420Z,0.57
2023-04-24T02:57:46.554Z,0.88
2023-04-24T03:00:13.721Z,0.57
2023-04-24T03:02:43.631Z,0.60
2023-04-24T03:05:12.138Z,0.65
2023-04-24T03:07:39.096Z,0.50
2023-04-24T03:10:08.936Z,0.50
2023-04-24T03:12:36.062Z,1.00
2023-04-24T03:15:03.207Z,0.65
2023-04-24T03:17:30.140Z,1.00
2023-04-24T03:20:02.620Z,0.68
2023-04-24T03:22:34.060Z,0.90
2023-04-24T03:25:09.507Z,0.80
2023-04-24T03:27:36.402Z,0.70
2023-04-24T03:30:08.391Z,1.80
2023-04-24T03:32:47.386Z,1.10
2023-04-24T03:35:18.601Z,2.03
2023-04-24T03:37:47.104Z,0.80
2023-04-24T03:40:52.596Z,0.68
2023-04-24T03:43:38.402Z,1.00
2023-04-24T03:46:07.285Z,0.88
2023-04-24T03:49:03.448Z,1.25
2023-04-24T03:51:37.699Z,1.08
2023-04-24T03:54:14.035Z,1.38
2023-04-24T03:56:44.811Z,1.25
2023-04-24T03:59:15.330Z,2.60
2023-04-24T04:01:47.366Z,1.65
2023-04-24T04:04:16.491Z,1.90
2023-04-24T04:06:48.632Z,1.33
2023-04-24T04:09:15.874Z,1.10
2023-04-24T04:11:42.547Z,1.30
2023-04-24T04:14:09.255Z,1.23
2023-04-24T04:16:42.402Z,0.95
2023-04-24T04:19:10.242Z,1.08
2023-04-24T04:21:36.980Z,0.80
2023-04-24T04:24:14.380Z,1.25
2023-04-24T04:26:51.197Z,1.33
2023-04-24T04:29:26.188Z,1.40
2023-04-24T04:32:20.811Z,1.80
2023-04-24T04:34:49.666Z,1.08
2023-04-24T04:37:17.466Z,1.33
2023-04-24T04:40:11.957Z,1.15
2023-04-24T04:42:48.285Z,1.27
2023-04-24T04:45:17.060Z,1.60
2023-04-24T04:48:03.820Z,1.40
2023-04-24T04:50:31.791Z,1.80
2023-04-24T04:53:04.429Z,2.25
2023-04-24T04:55:39.050Z,2.90
2023-04-24T04:58:18.529Z,2.05
2023-04-24T05:00:46.928Z,1.73
2023-04-24T05:03:26.092Z,1.63
2023-04-24T05:06:28.118Z,1.92
2023-04-24T05:09:03.754Z,1.20
2023-04-24T05:23:48.874Z,1.80
2023-04-24T05:26:25.886Z,2.55
2023-04-24T05:28:52.583Z,2.90
2023-04-24T05:31:20.517Z,3.50
2023-04-24T05:33:48.365Z,1.83
2023-04-24T05:36:17.121Z,2.22
2023-04-24T05:38:46.105Z,1.70
2023-04-24T05:41:18.780Z,1.95
2023-04-24T05:46:16.104Z,1.60
2023-04-24T05:48:42.773Z,1.67
2023-04-24T05:51:16.010Z,1.75
2023-04-24T05:53:42.851Z,1.40
2023-04-24T05:56:10.422Z,1.42
2023-04-24T05:58:39.954Z,1.42
2023-04-24T06:01:08.135Z,1.60
2023-04-24T06:03:38.504Z,1.40
2023-04-24T06:06:09.900Z,1.60
2023-04-24T06:08:37.479Z,1.58
2023-04-24T06:11:07.253Z,1.42
2023-04-24T06:13:34.387Z,1.33
2023-04-24T06:16:21.363Z,2.00
2023-04-24T06:18:56.309Z,1.13
2023-04-24T06:21:48.867Z,1.38
2023-04-24T06:24:19.353Z,1.50
2023-04-24T06:26:49.028Z,1.60
2023-04-24T06:29:15.693Z,1.63
2023-04-24T06:31:42.791Z,1.55
2023-04-24T06:34:13.847Z,2.15
2023-04-24T06:36:44.622Z,1.65
2023-04-24T06:39:38.547Z,1.50
2023-04-24T06:42:05.286Z,1.77
2023-04-24T06:44:38.074Z,1.80
2023-04-24T06:47:29.721Z,1.60
2023-04-24T06:49:59.268Z,1.80
2023-04-24T06:52:26.187Z,1.70
2023-04-24T06:54:52.834Z,1.75
2023-04-24T06:57:24.969Z,1.80
2023-04-24T06:59:53.874Z,1.50
2023-04-24T07:02:20.664Z,1.60
2023-04-24T07:04:47.929Z,1.50
2023-04-24T07:07:15.116Z,1.52
2023-04-24T07:09:43.032Z,1.30
2023-04-24T07:12:12.320Z,2.00
2023-04-24T07:14:40.265Z,1.33
2023-04-24T07:17:07.155Z,1.20
2023-04-24T07:19:39.939Z,1.15
2023-04-24T07:22:17.015Z,1.40
2023-04-24T07:24:46.656Z,1.70
2023-04-24T07:27:15.042Z,1.33
2023-04-24T07:32:38.128Z,1.30
2023-04-24T07:35:05.160Z,1.60
2023-04-24T07:37:36.783Z,1.38
2023-04-24T07:40:09.871Z,1.73
2023-04-24T07:42:40.070Z,1.30
2023-04-24T07:45:10.933Z,1.35
2023-04-24T07:47:44.291Z,1.50
2023-04-24T07:50:12.098Z,1.15
2023-04-24T07:52:40.116Z,1.13
2023-04-24T07:55:08.708Z,1.30
2023-04-24T07:57:38.620Z,1.20
2023-04-24T08:00:06.172Z,1.10
2023-04-24T08:05:08.094Z,1.02
2023-04-24T08:07:35.985Z,0.90
2023-04-24T08:10:07.648Z,1.30
2023-04-24T08:12:35.667Z,1.10
2023-04-24T08:15:05.990Z,1.00
2023-04-24T08:17:33.041Z,1.00
2023-04-24T08:20:01.694Z,1.17
2023-04-24T08:22:28.930Z,1.10
2023-04-24T08:24:57.232Z,1.38
2023-04-24T08:27:28.337Z,1.20
2023-04-24T08:29:55.304Z,1.30
2023-04-24T08:32:24.055Z,1.20
2023-04-24T08:34:56.496Z,1.30
2023-04-24T08:37:29.664Z,1.02
2023-04-24T08:39:56.442Z,0.90
2023-04-24T08:42:25.564Z,0.73
2023-04-24T08:44:55.305Z,1.00
2023-04-24T08:47:23.237Z,0.88
2023-04-24T08:49:56.524Z,1.05
2023-04-24T08:52:23.475Z,1.20
2023-04-24T08:54:54.171Z,1.10
2023-04-24T08:57:25.159Z,1.10
2023-04-24T08:59:54.126Z,1.10
2023-04-24T09:02:22.234Z,1.30
2023-04-24T09:04:50.132Z,1.30
2023-04-24T09:07:18.265Z,1.30
2023-04-24T09:09:48.311Z,1.00
2023-04-24T09:12:17.851Z,1.20
2023-04-24T09:14:49.206Z,1.23
2023-04-24T09:17:19.035Z,1.00
2023-04-24T09:19:53.194Z,1.20
2023-04-24T09:22:22.450Z,1.20
2023-04-24T09:25:04.104Z,1.17
2023-04-24T09:27:33.019Z,0.93
2023-04-24T09:30:02.517Z,1.30
2023-04-24T09:32:36.095Z,1.33
2023-04-24T09:35:16.078Z,1.00
2023-04-24T09:37:49.564Z,1.15
2023-04-24T09:40:18.653Z,1.13
2023-04-24T09:42:56.995Z,1.30
2023-04-24T09:45:38.200Z,1.35
2023-04-24T09:48:09.263Z,1.10
2023-04-24T09:50:38.994Z,1.50
2023-04-24T09:53:11.147Z,1.50
2023-04-24T09:55:48.759Z,1.60
2023-04-24T09:58:15.688Z,1.73
2023-04-24T10:00:42.351Z,2.30
2023-04-24T10:03:09.160Z,2.00
2023-04-24T10:05:37.747Z,1.70
2023-04-24T10:08:12.321Z,2.55
2023-04-24T10:13:40.455Z,1.88
2023-04-24T10:16:11.789Z,1.55
2023-04-24T10:18:40.050Z,1.42
2023-04-24T10:21:10.131Z,1.40
2023-04-24T10:23:37.581Z,1.50
2023-04-24T10:26:04.483Z,1.20
2023-04-24T10:28:34.439Z,1.33
2023-04-24T10:31:04.391Z,1.60
2023-04-24T10:33:32.210Z,1.75
2023-04-24T10:36:05.603Z,1.20
2023-04-24T10:38:35.154Z,1.55
2023-04-24T10:41:19.781Z,1.70
2023-04-24T10:43:51.316Z,1.63
2023-04-24T10:46:31.426Z,2.13
2023-04-24T10:48:58.603Z,1.65
2023-04-24T10:51:56.011Z,2.30
2023-04-24T10:54:46.965Z,1.55
2023-04-24T10:57:22.267Z,1.80
2023-04-24T10:59:51.976Z,2.30
2023-04-24T11:02:18.924Z,1.73
2023-04-24T11:04:51.866Z,1.75
2023-04-24T11:07:21.453Z,1.70
2023-04-24T11:10:06.335Z,1.60
2023-04-24T11:12:37.337Z,1.55
2023-04-24T11:15:13.475Z,1.70
2023-04-24T11:17:43.047Z,1.75
2023-04-24T11:20:26.813Z,1.58
2023-04-24T11:22:57.729Z,1.70
2023-04-24T11:25:25.295Z,1.73
2023-04-24T11:28:06.237Z,2.00
2023-04-24T11:30:39.447Z,1.90
2023-04-24T11:33:11.764Z,1.70
2023-04-24T11:35:41.849Z,1.83
2023-04-24T11:38:24.064Z,2.00
2023-04-24T11:40:59.031Z,2.40
2023-04-24T11:43:28.810Z,2.33
2023-04-24T11:46:00.545Z,2.45
2023-04-24T11:48:36.490Z,2.53
2023-04-24T11:54:03.655Z,2.50
2023-04-24T11:56:35.967Z,2.63
2023-04-24T11:59:04.730Z,2.53
2023-04-24T12:01:44.910Z,2.72
2023-04-24T12:04:14.171Z,2.55
2023-04-24T12:07:02.301Z,2.53
2023-04-24T12:09:55.405Z,2.35
2023-04-24T12:14:57.514Z,2.45
2023-04-24T12:17:41.395Z,2.83
2023-04-24T12:20:09.264Z,2.63
2023-04-24T12:22:54.590Z,2.72
2023-04-24T12:25:24.629Z,2.28
2023-04-24T12:28:14.777Z,2.72
2023-04-24T12:30:54.355Z,2.53
2023-04-24T12:33:22.258Z,2.60
2023-04-24T12:35:54.371Z,2.80
2023-04-24T12:38:27.266Z,2.78
2023-04-24T12:41:07.417Z,2.75
2023-04-24T12:43:35.045Z,2.75
2023-04-24T12:46:01.754Z,2.58
2023-04-24T12:48:37.854Z,2.22
2023-04-24T13:05:48.027Z,2.30
2023-04-24T13:08:15.099Z,1.98
2023-04-24T13:10:41.842Z,2.10
2023-04-24T13:13:09.200Z,2.15
2023-04-24T13:15:36.939Z,2.10
2023-04-24T13:18:06.757Z,2.50
2023-04-24T13:20:35.703Z,2.55
2023-04-24T13:23:04.569Z,2.45
2023-04-24T13:25:36.446Z,2.30
2023-04-24T13:28:05.408Z,1.65
2023-04-24T13:30:32.755Z,3.08
2023-04-24T13:33:01.936Z,2.97
2023-04-24T13:35:28.808Z,2.78
2023-04-24T13:37:55.712Z,2.22
2023-04-24T13:40:22.436Z,2.17
2023-04-24T13:42:49.415Z,2.22
2023-04-24T13:45:24.750Z,2.40
2023-04-24T13:50:53.482Z,2.35
2023-04-24T13:53:20.361Z,2.38
2023-04-24T13:55:52.179Z,2.50
2023-04-24T13:58:18.998Z,2.57
2023-04-24T14:00:49.883Z,2.13
2023-04-24T14:03:17.181Z,2.38
2023-04-24T14:05:43.930Z,2.40
2023-04-24T14:08:10.876Z,2.83
2023-04-24T14:10:37.863Z,2.55
2023-04-24T14:13:09.438Z,2.35
2023-04-24T14:15:37.244Z,2.53
2023-04-24T14:18:06.560Z,2.30
2023-04-24T14:20:33.302Z,2.03
2023-04-24T14:22:59.921Z,2.00
2023-04-24T14:25:26.940Z,1.85
2023-04-24T14:27:55.674Z,2.10
2023-04-24T14:30:25.426Z,1.70
2023-04-24T14:32:55.413Z,1.60
2023-04-24T14:35:25.786Z,1.83
2023-04-24T14:37:55.640Z,1.80
2023-04-24T14:40:48.373Z,2.20
2023-04-24T14:43:15.710Z,2.20
2023-04-24T14:45:42.440Z,2.70
2023-04-24T14:48:09.338Z,2.10
2023-04-24T14:50:36.336Z,2.00
2023-04-24T14:53:05.398Z,1.80
2023-04-24T14:55:36.533Z,2.15
2023-04-24T14:58:04.062Z,1.80
2023-04-24T15:00:33.609Z,1.85
2023-04-24T15:03:01.858Z,1.73
2023-04-24T15:05:54.720Z,1.45
2023-04-24T15:08:21.486Z,1.30
2023-04-24T15:10:48.749Z,1.90
2023-04-24T15:13:19.124Z,1.50
2023-04-24T15:15:49.532Z,2.13
2023-04-24T15:18:19.841Z,1.38
2023-04-24T15:20:46.503Z,1.70
2023-04-24T15:23:13.262Z,1.88
2023-04-24T15:25:40.604Z,1.80
2023-04-24T15:28:07.489Z,1.70
2023-04-24T15:30:35.414Z,1.98
2023-04-24T15:33:29.626Z,1.67
2023-04-24T15:35:57.606Z,1.55
2023-04-24T15:38:27.637Z,1.42
2023-04-24T15:40:56.748Z,1.50
2023-04-24T15:43:24.981Z,1.35
2023-04-24T15:45:55.014Z,1.33
2023-04-24T15:48:24.547Z,1.83
2023-04-24T15:50:52.526Z,1.33
2023-04-24T15:53:22.931Z,1.88
2023-04-24T15:55:50.722Z,1.40
2023-04-24T15:58:20.736Z,1.50
2023-04-24T16:00:48.247Z,1.52
2023-04-24T16:03:15.357Z,1.80
2023-04-24T16:05:45.995Z,1.60
2023-04-24T16:08:14.999Z,1.85
2023-04-24T16:10:48.684Z,1.90
2023-04-24T16:13:17.872Z,1.90
2023-04-24T16:15:45.672Z,2.05
2023-04-24T16:18:12.928Z,1.60
2023-04-24T16:20:42.733Z,1.65
2023-04-24T16:23:12.822Z,2.15
2023-04-24T16:25:42.925Z,1.50
2023-04-24T16:28:11.462Z,1.75
2023-04-24T16:30:39.604Z,1.52
2023-04-24T16:33:10.986Z,1.40
2023-04-24T16:35:39.945Z,1.75
2023-04-24T16:38:34.748Z,1.75
2023-04-24T16:41:03.730Z,1.55
2023-04-24T16:43:30.393Z,1.80
2023-04-24T16:46:28.378Z,1.88
2023-04-24T16:48:57.309Z,1.63
2023-04-24T16:51:37.735Z,1.80
2023-04-24T16:57:03.500Z,1.60
2023-04-24T16:59:59.720Z,1.60
2023-04-24T17:02:29.021Z,1.77
2023-04-24T17:04:56.895Z,1.65
2023-04-24T17:07:23.744Z,1.90
2023-04-24T17:09:50.473Z,1.50
2023-04-24T17:12:23.975Z,1.55
2023-04-24T17:14:52.913Z,1.70
2023-04-24T17:17:22.610Z,2.13
2023-04-24T17:19:51.994Z,1.92
2023-04-24T17:22:18.919Z,2.40
2023-04-24T17:24:45.498Z,1.90
2023-04-24T17:27:15.520Z,2.15
2023-04-24T17:29:43.459Z,2.22
2023-04-24T17:32:13.739Z,2.17
2023-04-24T17:34:43.850Z,1.60
2023-04-24T17:37:10.676Z,1.60
2023-04-24T17:39:39.163Z,1.25
2023-04-24T17:42:06.044Z,1.60
2023-04-24T17:44:32.656Z,2.50
2023-04-24T17:46:59.322Z,1.70
2023-04-24T17:49:30.048Z,1.70
2023-04-24T17:52:00.836Z,1.70
2023-04-24T17:54:29.733Z,1.60
2023-04-24T17:56:56.589Z,1.85
2023-04-24T17:59:23.314Z,2.00
2023-04-24T18:01:53.212Z,1.75
2023-04-24T18:04:48.509Z,1.92
2023-04-24T18:07:16.212Z,4.38
2023-04-24T18:09:42.942Z,3.33
2023-04-24T18:12:13.993Z,2.38
2023-04-24T18:14:42.920Z,2.25
2023-04-24T18:17:09.669Z,2.78
2023-04-24T18:19:40.735Z,2.35
2023-04-24T18:22:07.549Z,1.83
2023-04-24T18:24:34.291Z,1.83
2023-04-24T18:35:48.907Z,2.38
2023-04-24T18:41:13.596Z,2.53
2023-04-24T18:46:34.189Z,2.10
2023-04-24T18:52:01.178Z,2.80
2023-04-24T18:54:31.139Z,2.78
2023-04-24T18:56:57.923Z,4.03
2023-04-24T18:59:24.998Z,4.00
2023-04-24T19:11:06.308Z,2.95
2023-04-24T19:13:33.084Z,2.53
2023-04-24T19:16:02.457Z,2.78
2023-04-24T19:21:07.821Z,2.50
2023-04-24T19:23:38.888Z,3.35
2023-04-24T19:26:07.148Z,3.15
2023-04-24T19:31:17.750Z,2.83
2023-04-24T19:34:17.034Z,4.00
2023-04-24T19:37:13.080Z,3.33
2023-04-24T19:42:43.301Z,3.70
2023-04-24T19:45:14.192Z,3.60
2023-04-24T19:47:48.105Z,3.55
2023-04-24T19:50:16.434Z,3.20
2023-04-24T19:52:43.089Z,3.20
2023-04-24T19:57:57.118Z,3.55
2023-04-24T20:06:05.644Z,3.33
2023-04-24T20:11:35.570Z,3.38
2023-04-24T20:17:02.518Z,4.07
2023-04-24T20:19:33.947Z,5.20
2023-04-24T20:22:31.707Z,4.43
2023-04-24T20:27:48.693Z,4.47
2023-04-24T20:30:16.482Z,3.60
2023-04-24T20:32:47.138Z,3.78
2023-04-24T20:35:13.884Z,3.83
2023-04-24T20:37:40.846Z,3.42
2023-04-24T20:43:06.890Z,3.50
2023-04-24T20:48:19.253Z,2.80
2023-04-24T20:50:49.443Z,3.05
2023-04-24T20:53:18.013Z,2.50
2023-04-24T20:55:47.248Z,2.80
2023-04-24T20:58:14.801Z,4.15
2023-04-24T21:00:41.734Z,3.17
2023-04-24T21:03:14.231Z,4.07
2023-04-24T21:08:37.313Z,13.40
2023-04-24T21:16:51.481Z,4.40
2023-04-24T21:19:19.104Z,8.30
2023-04-24T21:21:49.259Z,6.90
2023-04-24T21:24:15.897Z,6.03
2023-04-24T21:26:43.338Z,4.00
2023-04-24T21:29:10.954Z,2.97
2023-04-24T21:31:51.271Z,2.72
2023-04-24T21:37:00.352Z,2.47
2023-04-24T21:39:27.765Z,2.42
2023-04-24T21:45:00.295Z,2.10
2023-04-24T21:47:32.395Z,3.08
2023-04-24T21:50:24.467Z,2.80
2023-04-24T21:52:52.310Z,2.85
2023-04-24T21:55:20.463Z,2.78
2023-04-24T22:00:49.377Z,2.42
2023-04-24T22:03:16.898Z,2.65
2023-04-24T22:06:12.266Z,2.63
2023-04-24T22:08:38.874Z,2.30
2023-04-24T22:11:09.088Z,2.30
2023-04-24T22:13:50.038Z,2.67
2023-04-24T22:16:17.241Z,2.42
2023-04-24T22:18:47.567Z,2.47
2023-04-24T22:21:15.441Z,2.72
2023-04-24T22:24:09.856Z,2.10
2023-04-24T22:27:02.220Z,2.30
2023-04-24T22:29:53.799Z,2.10
2023-04-24T22:32:21.463Z,2.35
2023-04-24T22:34:48.150Z,2.63
2023-04-24T22:37:15.090Z,2.53
2023-04-24T22:39:41.679Z,2.67
2023-04-24T22:42:08.418Z,2.78
2023-04-24T22:44:36.276Z,2.58
2023-04-24T22:47:06.494Z,2.47
2023-04-24T22:49:37.246Z,2.83
2023-04-24T22:52:04.385Z,2.60
2023-04-24T22:54:35.283Z,2.33
2023-04-24T22:59:44.527Z,2.80
2023-04-24T23:02:11.390Z,2.58
2023-04-24T23:05:06.039Z,2.88
2023-04-24T23:07:40.465Z,2.53
2023-04-24T23:10:07.654Z,2.65
2023-04-24T23:12:43.773Z,3.17
2023-04-24T23:15:13.889Z,3.10
2023-04-24T23:17:56.179Z,3.20
2023-04-24T23:23:25.342Z,2.90
2023-04-24T23:25:51.944Z,2.95
2023-04-24T23:28:18.546Z,8.95
2023-04-24T23:30:45.226Z,13.30
2023-04-24T23:36:14.922Z,7.20
2023-04-24T23:38:50.103Z,9.75
2023-04-24T23:41:22.990Z,7.03
2023-04-24T23:43:49.887Z,5.18
2023-04-24T23:46:20.040Z,5.30
2023-04-24T23:51:46.531Z,2.88
2023-04-24T23:54:13.337Z,2.83
2023-04-24T23:56:42.536Z,2.90
2023-04-24T23:59:09.251Z,2.88
